sensor_id;sensor_type;location;lat;lon;timestamp;temperature;humidity
70676;DHT22;59069;52.242;20.900;2023-04-01T00:02:06;10.68;88.06
70676;DHT22;59069;52.242;20.900;2023-04-01T00:04:32;10.63;88.11
70676;DHT22;59069;52.242;20.900;2023-04-01T00:06:58;10.64;88.12
70676;DHT22;59069;52.242;20.900;2023-04-01T00:09:24;10.61;88.21
70676;DHT22;59069;52.242;20.900;2023-04-01T00:11:50;10.63;88.30
70676;DHT22;59069;52.242;20.900;2023-04-01T00:14:15;10.61;88.39
70676;DHT22;59069;52.242;20.900;2023-04-01T00:16:41;10.59;88.37
70676;DHT22;59069;52.242;20.900;2023-04-01T00:19:06;10.57;88.41
70676;DHT22;59069;52.242;20.900;2023-04-01T00:21:32;10.59;88.42
70676;DHT22;59069;52.242;20.900;2023-04-01T00:23:58;10.53;88.37
70676;DHT22;59069;52.242;20.900;2023-04-01T00:26:24;10.50;88.36
70676;DHT22;59069;52.242;20.900;2023-04-01T00:28:50;10.46;88.29
70676;DHT22;59069;52.242;20.900;2023-04-01T00:31:16;10.44;88.38
70676;DHT22;59069;52.242;20.900;2023-04-01T00:33:42;10.44;88.44
70676;DHT22;59069;52.242;20.900;2023-04-01T00:36:12;10.43;88.61
70676;DHT22;59069;52.242;20.900;2023-04-01T00:38:38;10.44;88.63
70676;DHT22;59069;52.242;20.900;2023-04-01T00:41:05;10.40;88.61
70676;DHT22;59069;52.242;20.900;2023-04-01T00:43:31;10.40;88.71
70676;DHT22;59069;52.242;20.900;2023-04-01T00:45:57;10.36;88.85
70676;DHT22;59069;52.242;20.900;2023-04-01T00:48:26;10.36;88.96
70676;DHT22;59069;52.242;20.900;2023-04-01T00:51:01;10.34;88.98
70676;DHT22;59069;52.242;20.900;2023-04-01T00:53:28;10.33;88.99
70676;DHT22;59069;52.242;20.900;2023-04-01T00:56:16;10.29;89.07
70676;DHT22;59069;52.242;20.900;2023-04-01T00:58:56;10.28;89.06
70676;DHT22;59069;52.242;20.900;2023-04-01T01:01:24;10.21;89.08
70676;DHT22;59069;52.242;20.900;2023-04-01T01:03:50;10.23;89.00
70676;DHT22;59069;52.242;20.900;2023-04-01T01:17:05;10.20;89.28
70676;DHT22;59069;52.242;20.900;2023-04-01T01:19:50;10.21;89.34
70676;DHT22;59069;52.242;20.900;2023-04-01T01:22:21;10.20;89.42
70676;DHT22;59069;52.242;20.900;2023-04-01T01:27:49;10.23;89.77
70676;DHT22;59069;52.242;20.900;2023-04-01T01:35:56;10.33;89.69
70676;DHT22;59069;52.242;20.900;2023-04-01T01:38:27;10.34;89.69
70676;DHT22;59069;52.242;20.900;2023-04-01T01:40:56;10.36;89.58
70676;DHT22;59069;52.242;20.900;2023-04-01T01:43:30;10.37;89.57
70676;DHT22;59069;52.242;20.900;2023-04-01T01:46:00;10.39;89.63
70676;DHT22;59069;52.242;20.900;2023-04-01T01:48:27;10.39;89.57
70676;DHT22;59069;52.242;20.900;2023-04-01T01:50:54;10.39;89.49
70676;DHT22;59069;52.242;20.900;2023-04-01T01:53:20;10.37;89.43
70676;DHT22;59069;52.242;20.900;2023-04-01T01:55:47;10.37;89.43
70676;DHT22;59069;52.242;20.900;2023-04-01T01:58:29;10.36;89.38
70676;DHT22;59069;52.242;20.900;2023-04-01T02:00:58;10.37;89.41
70676;DHT22;59069;52.242;20.900;2023-04-01T02:03:27;10.39;89.43
70676;DHT22;59069;52.242;20.900;2023-04-01T02:05:56;10.40;89.45
70676;DHT22;59069;52.242;20.900;2023-04-01T02:08:41;10.37;89.38
70676;DHT22;59069;52.242;20.900;2023-04-01T02:11:12;10.39;89.35
70676;DHT22;59069;52.242;20.900;2023-04-01T02:13:58;10.36;89.43
70676;DHT22;59069;52.242;20.900;2023-04-01T02:16:36;10.39;89.43
70676;DHT22;59069;52.242;20.900;2023-04-01T02:19:02;10.40;89.50
70676;DHT22;59069;52.242;20.900;2023-04-01T02:21:33;10.39;89.45
70676;DHT22;59069;52.242;20.900;2023-04-01T02:24:02;10.41;89.36
70676;DHT22;59069;52.242;20.900;2023-04-01T02:26:29;10.41;89.34
70676;DHT22;59069;52.242;20.900;2023-04-01T02:28:56;10.41;89.20
70676;DHT22;59069;52.242;20.900;2023-04-01T02:31:23;10.39;89.30
70676;DHT22;59069;52.242;20.900;2023-04-01T02:33:49;10.37;89.32
70676;DHT22;59069;52.242;20.900;2023-04-01T02:36:15;10.39;89.27
70676;DHT22;59069;52.242;20.900;2023-04-01T02:38:43;10.36;88.95
70676;DHT22;59069;52.242;20.900;2023-04-01T02:41:09;10.30;89.08
70676;DHT22;59069;52.242;20.900;2023-04-01T02:43:35;10.30;89.09
70676;DHT22;59069;52.242;20.900;2023-04-01T02:46:01;10.28;89.04
70676;DHT22;59069;52.242;20.900;2023-04-01T02:48:27;10.26;88.77
70676;DHT22;59069;52.242;20.900;2023-04-01T02:50:53;10.17;88.52
70676;DHT22;59069;52.242;20.900;2023-04-01T02:53:18;10.14;88.77
70676;DHT22;59069;52.242;20.900;2023-04-01T02:55:44;10.12;89.18
70676;DHT22;59069;52.242;20.900;2023-04-01T02:58:10;10.10;89.45
70676;DHT22;59069;52.242;20.900;2023-04-01T03:00:36;10.09;89.64
70676;DHT22;59069;52.242;20.900;2023-04-01T03:03:03;10.10;89.64
70676;DHT22;59069;52.242;20.900;2023-04-01T03:05:28;10.10;89.57
70676;DHT22;59069;52.242;20.900;2023-04-01T03:07:54;10.09;89.51
70676;DHT22;59069;52.242;20.900;2023-04-01T03:10:20;10.08;89.52
70676;DHT22;59069;52.242;20.900;2023-04-01T03:12:46;10.06;89.58
70676;DHT22;59069;52.242;20.900;2023-04-01T03:15:12;10.06;89.58
70676;DHT22;59069;52.242;20.900;2023-04-01T03:17:40;10.08;89.59
70676;DHT22;59069;52.242;20.900;2023-04-01T03:20:07;10.06;89.62
70676;DHT22;59069;52.242;20.900;2023-04-01T03:22:34;10.06;89.61
70676;DHT22;59069;52.242;20.900;2023-04-01T03:25:01;10.06;89.54
70676;DHT22;59069;52.242;20.900;2023-04-01T03:27:27;10.02;89.48
70676;DHT22;59069;52.242;20.900;2023-04-01T03:29:52;10.02;89.46
70676;DHT22;59069;52.242;20.900;2023-04-01T03:32:18;10.00;89.45
70676;DHT22;59069;52.242;20.900;2023-04-01T03:34:43;9.98;89.40
70676;DHT22;59069;52.242;20.900;2023-04-01T03:37:09;9.95;89.34
70676;DHT22;59069;52.242;20.900;2023-04-01T03:39:34;9.93;89.41
70676;DHT22;59069;52.242;20.900;2023-04-01T03:42:00;9.89;89.53
70676;DHT22;59069;52.242;20.900;2023-04-01T03:44:26;9.89;89.53
70676;DHT22;59069;52.242;20.900;2023-04-01T03:46:51;9.88;89.51
70676;DHT22;59069;52.242;20.900;2023-04-01T03:49:17;9.85;89.58
70676;DHT22;59069;52.242;20.900;2023-04-01T03:51:43;9.88;89.64
70676;DHT22;59069;52.242;20.900;2023-04-01T03:54:10;9.86;89.59
70676;DHT22;59069;52.242;20.900;2023-04-01T03:56:36;9.83;89.61
70676;DHT22;59069;52.242;20.900;2023-04-01T03:59:03;9.85;89.58
70676;DHT22;59069;52.242;20.900;2023-04-01T04:01:29;9.85;89.59
70676;DHT22;59069;52.242;20.900;2023-04-01T04:03:56;9.83;89.58
70676;DHT22;59069;52.242;20.900;2023-04-01T04:06:22;9.83;89.70
70676;DHT22;59069;52.242;20.900;2023-04-01T04:08:49;9.82;89.66
70676;DHT22;59069;52.242;20.900;2023-04-01T04:11:15;9.85;89.70
70676;DHT22;59069;52.242;20.900;2023-04-01T04:13:41;9.83;89.68
70676;DHT22;59069;52.242;20.900;2023-04-01T04:16:07;9.82;89.66
70676;DHT22;59069;52.242;20.900;2023-04-01T04:18:33;9.82;89.61
70676;DHT22;59069;52.242;20.900;2023-04-01T04:20:59;9.83;89.54
70676;DHT22;59069;52.242;20.900;2023-04-01T04:23:24;9.82;89.54
70676;DHT22;59069;52.242;20.900;2023-04-01T04:26:01;9.81;89.47
70676;DHT22;59069;52.242;20.900;2023-04-01T04:28:27;9.82;89.38
70676;DHT22;59069;52.242;20.900;2023-04-01T04:30:54;9.79;89.30
70676;DHT22;59069;52.242;20.900;2023-04-01T04:33:21;9.79;89.22
70676;DHT22;59069;52.242;20.900;2023-04-01T04:35:46;9.75;89.16
70676;DHT22;59069;52.242;20.900;2023-04-01T04:38:12;9.77;89.14
70676;DHT22;59069;52.242;20.900;2023-04-01T04:40:38;9.71;89.09
70676;DHT22;59069;52.242;20.900;2023-04-01T04:43:04;9.71;89.01
70676;DHT22;59069;52.242;20.900;2023-04-01T04:45:30;9.71;89.04
70676;DHT22;59069;52.242;20.900;2023-04-01T04:47:55;9.69;89.03
70676;DHT22;59069;52.242;20.900;2023-04-01T04:50:22;9.69;88.93
70676;DHT22;59069;52.242;20.900;2023-04-01T04:52:48;9.68;88.81
70676;DHT22;59069;52.242;20.900;2023-04-01T04:55:13;9.67;88.73
70676;DHT22;59069;52.242;20.900;2023-04-01T04:57:40;9.63;88.71
70676;DHT22;59069;52.242;20.900;2023-04-01T05:00:06;9.62;88.70
70676;DHT22;59069;52.242;20.900;2023-04-01T05:02:32;9.58;88.69
70676;DHT22;59069;52.242;20.900;2023-04-01T05:04:57;9.61;88.76
70676;DHT22;59069;52.242;20.900;2023-04-01T05:07:23;9.61;88.78
70676;DHT22;59069;52.242;20.900;2023-04-01T05:09:48;9.61;88.80
70676;DHT22;59069;52.242;20.900;2023-04-01T05:12:14;9.58;88.70
70676;DHT22;59069;52.242;20.900;2023-04-01T05:14:39;9.59;88.65
70676;DHT22;59069;52.242;20.900;2023-04-01T05:17:08;9.57;88.66
70676;DHT22;59069;52.242;20.900;2023-04-01T05:19:34;9.57;88.64
70676;DHT22;59069;52.242;20.900;2023-04-01T05:22:00;9.57;88.71
70676;DHT22;59069;52.242;20.900;2023-04-01T05:24:25;9.59;88.76
70676;DHT22;59069;52.242;20.900;2023-04-01T05:26:51;9.63;88.82
70676;DHT22;59069;52.242;20.900;2023-04-01T05:29:16;9.63;88.76
70676;DHT22;59069;52.242;20.900;2023-04-01T05:31:42;9.67;88.62
70676;DHT22;59069;52.242;20.900;2023-04-01T05:34:07;9.68;88.46
70676;DHT22;59069;52.242;20.900;2023-04-01T05:36:33;9.68;88.35
70676;DHT22;59069;52.242;20.900;2023-04-01T05:38:59;9.69;88.34
70676;DHT22;59069;52.242;20.900;2023-04-01T05:41:25;9.72;88.37
70676;DHT22;59069;52.242;20.900;2023-04-01T05:43:50;9.75;88.51
70676;DHT22;59069;52.242;20.900;2023-04-01T05:46:16;9.81;88.63
70676;DHT22;59069;52.242;20.900;2023-04-01T05:48:41;9.89;88.63
70676;DHT22;59069;52.242;20.900;2023-04-01T05:51:12;9.98;88.66
70676;DHT22;59069;52.242;20.900;2023-04-01T05:53:38;10.06;88.31
70676;DHT22;59069;52.242;20.900;2023-04-01T05:56:04;10.13;87.86
70676;DHT22;59069;52.242;20.900;2023-04-01T05:58:30;10.13;87.57
70676;DHT22;59069;52.242;20.900;2023-04-01T06:01:01;10.20;87.42
70676;DHT22;59069;52.242;20.900;2023-04-01T06:03:27;10.21;87.46
70676;DHT22;59069;52.242;20.900;2023-04-01T06:05:52;10.32;87.46
70676;DHT22;59069;52.242;20.900;2023-04-01T06:08:18;10.40;87.34
70676;DHT22;59069;52.242;20.900;2023-04-01T06:11:11;10.40;86.69
70676;DHT22;59069;52.242;20.900;2023-04-01T06:14:08;10.39;86.21
70676;DHT22;59069;52.242;20.900;2023-04-01T06:17:00;10.40;86.15
70676;DHT22;59069;52.242;20.900;2023-04-01T06:25:14;10.39;85.77
70676;DHT22;59069;52.242;20.900;2023-04-01T06:33:56;10.32;85.25
70676;DHT22;59069;52.242;20.900;2023-04-01T06:48:35;10.68;85.49
70676;DHT22;59069;52.242;20.900;2023-04-01T06:51:39;10.75;85.20
70676;DHT22;59069;52.242;20.900;2023-04-01T06:54:09;10.84;84.96
70676;DHT22;59069;52.242;20.900;2023-04-01T06:56:37;10.87;84.50
70676;DHT22;59069;52.242;20.900;2023-04-01T06:59:10;10.88;84.18
70676;DHT22;59069;52.242;20.900;2023-04-01T07:01:44;10.92;84.00
70676;DHT22;59069;52.242;20.900;2023-04-01T07:04:37;10.92;83.46
70676;DHT22;59069;52.242;20.900;2023-04-01T07:09:37;10.87;82.97
70676;DHT22;59069;52.242;20.900;2023-04-01T07:12:15;10.85;82.91
70676;DHT22;59069;52.242;20.900;2023-04-01T07:14:44;10.82;83.02
70676;DHT22;59069;52.242;20.900;2023-04-01T07:24:53;10.97;83.41
70676;DHT22;59069;52.242;20.900;2023-04-01T07:27:19;10.95;83.25
70676;DHT22;59069;52.242;20.900;2023-04-01T07:29:45;10.95;83.30
70676;DHT22;59069;52.242;20.900;2023-04-01T07:35:25;10.88;83.41
70676;DHT22;59069;52.242;20.900;2023-04-01T07:40:53;10.97;84.22
70676;DHT22;59069;52.242;20.900;2023-04-01T07:49:14;11.14;83.52
70676;DHT22;59069;52.242;20.900;2023-04-01T07:52:01;11.19;83.59
70676;DHT22;59069;52.242;20.900;2023-04-01T07:55:01;11.23;83.40
70676;DHT22;59069;52.242;20.900;2023-04-01T07:58:12;11.31;83.57
70676;DHT22;59069;52.242;20.900;2023-04-01T08:06:02;11.33;82.45
70676;DHT22;59069;52.242;20.900;2023-04-01T08:14:10;11.39;82.79
70676;DHT22;59069;52.242;20.900;2023-04-01T08:17:15;11.43;82.46
70676;DHT22;59069;52.242;20.900;2023-04-01T08:20:07;11.40;82.35
70676;DHT22;59069;52.242;20.900;2023-04-01T08:22:42;11.43;82.69
70676;DHT22;59069;52.242;20.900;2023-04-01T08:25:17;11.52;82.83
70676;DHT22;59069;52.242;20.900;2023-04-01T08:27:48;11.60;82.92
70676;DHT22;59069;52.242;20.900;2023-04-01T08:30:25;11.69;81.96
70676;DHT22;59069;52.242;20.900;2023-04-01T08:33:00;11.76;81.31
70676;DHT22;59069;52.242;20.900;2023-04-01T08:41:22;11.91;78.99
70676;DHT22;59069;52.242;20.900;2023-04-01T08:51:51;11.80;77.72
70676;DHT22;59069;52.242;20.900;2023-04-01T08:57:12;11.70;77.62
70676;DHT22;59069;52.242;20.900;2023-04-01T09:11:57;11.49;78.66
70676;DHT22;59069;52.242;20.900;2023-04-01T09:14:45;11.40;78.51
70676;DHT22;59069;52.242;20.900;2023-04-01T09:22:56;11.35;79.13
70676;DHT22;59069;52.242;20.900;2023-04-01T09:26:02;11.43;79.30
70676;DHT22;59069;52.242;20.900;2023-04-01T09:39:37;11.50;77.92
70676;DHT22;59069;52.242;20.900;2023-04-01T09:45:04;11.53;78.46
70676;DHT22;59069;52.242;20.900;2023-04-01T09:47:57;11.56;78.49
70676;DHT22;59069;52.242;20.900;2023-04-01T09:53:53;11.58;78.32
70676;DHT22;59069;52.242;20.900;2023-04-01T10:02:53;11.53;77.44
70676;DHT22;59069;52.242;20.900;2023-04-01T10:18:56;11.94;78.13
70676;DHT22;59069;52.242;20.900;2023-04-01T10:27:06;12.31;77.19
70676;DHT22;59069;52.242;20.900;2023-04-01T10:46:49;12.91;73.81
70676;DHT22;59069;52.242;20.900;2023-04-01T11:15:37;12.65;73.03
70676;DHT22;59069;52.242;20.900;2023-04-01T11:31:54;12.07;75.41
70676;DHT22;59069;52.242;20.900;2023-04-01T11:53:01;12.63;73.55
70676;DHT22;59069;52.242;20.900;2023-04-01T11:55:53;12.65;72.74
70676;DHT22;59069;52.242;20.900;2023-04-01T12:04:00;12.82;71.99
70676;DHT22;59069;52.242;20.900;2023-04-01T12:15:16;13.74;73.84
70676;DHT22;59069;52.242;20.900;2023-04-01T12:26:00;15.52;66.10
70676;DHT22;59069;52.242;20.900;2023-04-01T12:37:13;16.02;60.05
70676;DHT22;59069;52.242;20.900;2023-04-01T12:42:48;15.34;60.75
70676;DHT22;59069;52.242;20.900;2023-04-01T12:45:28;15.06;61.58
70676;DHT22;59069;52.242;20.900;2023-04-01T13:02:30;13.78;65.56
70676;DHT22;59069;52.242;20.900;2023-04-01T13:05:18;13.53;66.56
70676;DHT22;59069;52.242;20.900;2023-04-01T13:08:05;13.36;67.06
70676;DHT22;59069;52.242;20.900;2023-04-01T13:11:08;13.22;68.22
70676;DHT22;59069;52.242;20.900;2023-04-01T13:14:04;12.96;69.47
70676;DHT22;59069;52.242;20.900;2023-04-01T13:16:45;12.72;71.10
70676;DHT22;59069;52.242;20.900;2023-04-01T13:19:19;12.58;72.54
70676;DHT22;59069;52.242;20.900;2023-04-01T13:27:07;12.85;76.77
70676;DHT22;59069;52.242;20.900;2023-04-01T13:29:55;13.16;77.34
70676;DHT22;59069;52.242;20.900;2023-04-01T13:41:11;13.13;74.55
70676;DHT22;59069;52.242;20.900;2023-04-01T13:43:45;12.96;74.52
70676;DHT22;59069;52.242;20.900;2023-04-01T13:46:47;12.79;74.89
70676;DHT22;59069;52.242;20.900;2023-04-01T13:49:39;12.72;75.49
70676;DHT22;59069;52.242;20.900;2023-04-01T14:03:59;12.05;76.46
70676;DHT22;59069;52.242;20.900;2023-04-01T14:15:21;11.63;78.20
70676;DHT22;59069;52.242;20.900;2023-04-01T14:20:38;11.47;79.15
70676;DHT22;59069;52.242;20.900;2023-04-01T14:23:34;11.44;79.66
70676;DHT22;59069;52.242;20.900;2023-04-01T14:28:49;11.33;79.67
70676;DHT22;59069;52.242;20.900;2023-04-01T14:31:27;11.31;79.82
70676;DHT22;59069;52.242;20.900;2023-04-01T14:50:54;11.09;81.25
70676;DHT22;59069;52.242;20.900;2023-04-01T14:53:36;11.11;81.34
70676;DHT22;59069;52.242;20.900;2023-04-01T14:56:04;11.04;81.12
70676;DHT22;59069;52.242;20.900;2023-04-01T14:58:45;10.90;80.97
70676;DHT22;59069;52.242;20.900;2023-04-01T15:11:47;10.63;82.20
70676;DHT22;59069;52.242;20.900;2023-04-01T15:14:28;10.63;82.55
70676;DHT22;59069;52.242;20.900;2023-04-01T15:17:18;10.60;82.72
70676;DHT22;59069;52.242;20.900;2023-04-01T15:30:33;10.54;82.46
70676;DHT22;59069;52.242;20.900;2023-04-01T15:43:43;10.46;82.41
70676;DHT22;59069;52.242;20.900;2023-04-01T16:00:16;10.56;81.50
70676;DHT22;59069;52.242;20.900;2023-04-01T16:11:38;10.41;81.07
70676;DHT22;59069;52.242;20.900;2023-04-01T16:25:01;10.29;81.63
70676;DHT22;59069;52.242;20.900;2023-04-01T16:27:40;10.24;81.65
70676;DHT22;59069;52.242;20.900;2023-04-01T16:30:33;10.26;81.62
70676;DHT22;59069;52.242;20.900;2023-04-01T16:35:59;10.20;81.44
70676;DHT22;59069;52.242;20.900;2023-04-01T16:38:37;10.16;81.68
70676;DHT22;59069;52.242;20.900;2023-04-01T16:46:48;10.09;82.00
70676;DHT22;59069;52.242;20.900;2023-04-01T16:49:17;10.09;82.00
70676;DHT22;59069;52.242;20.900;2023-04-01T16:54:44;10.08;82.04
70676;DHT22;59069;52.242;20.900;2023-04-01T16:57:21;10.09;82.05
70676;DHT22;59069;52.242;20.900;2023-04-01T17:00:14;10.09;82.01
70676;DHT22;59069;52.242;20.900;2023-04-01T17:10:53;10.12;82.23
70676;DHT22;59069;52.242;20.900;2023-04-01T17:13:46;10.10;82.34
70676;DHT22;59069;52.242;20.900;2023-04-01T17:22:47;10.00;82.17
70676;DHT22;59069;52.242;20.900;2023-04-01T17:39:11;9.71;82.02
70676;DHT22;59069;52.242;20.900;2023-04-01T17:47:25;9.48;82.02
70676;DHT22;59069;52.242;20.900;2023-04-01T17:52:32;9.42;82.38
70676;DHT22;59069;52.242;20.900;2023-04-01T17:57:52;9.35;82.06
70676;DHT22;59069;52.242;20.900;2023-04-01T18:00:28;9.24;81.98
70676;DHT22;59069;52.242;20.900;2023-04-01T18:20:31;8.94;83.02
70676;DHT22;59069;52.242;20.900;2023-04-01T18:25:47;8.91;83.00
70676;DHT22;59069;52.242;20.900;2023-04-01T18:30:52;8.90;83.30
70676;DHT22;59069;52.242;20.900;2023-04-01T18:33:31;8.91;83.27
70676;DHT22;59069;52.242;20.900;2023-04-01T18:38:56;8.88;83.26
70676;DHT22;59069;52.242;20.900;2023-04-01T18:49:54;8.87;83.34
70676;DHT22;59069;52.242;20.900;2023-04-01T18:52:28;8.87;83.32
70676;DHT22;59069;52.242;20.900;2023-04-01T18:57:38;8.86;83.45
70676;DHT22;59069;52.242;20.900;2023-04-01T19:00:14;8.83;83.37
70676;DHT22;59069;52.242;20.900;2023-04-01T19:03:00;8.80;83.34
70676;DHT22;59069;52.242;20.900;2023-04-01T19:05:39;8.81;83.43
70676;DHT22;59069;52.242;20.900;2023-04-01T19:08:38;8.80;83.44
70676;DHT22;59069;52.242;20.900;2023-04-01T19:11:30;8.76;83.41
70676;DHT22;59069;52.242;20.900;2023-04-01T19:16:50;8.70;83.53
70676;DHT22;59069;52.242;20.900;2023-04-01T19:19:39;8.66;83.70
70676;DHT22;59069;52.242;20.900;2023-04-01T19:25:33;8.62;83.95
70676;DHT22;59069;52.242;20.900;2023-04-01T19:28:23;8.59;84.03
70676;DHT22;59069;52.242;20.900;2023-04-01T19:36:16;8.62;84.01
70676;DHT22;59069;52.242;20.900;2023-04-01T19:45:26;8.60;83.92
70676;DHT22;59069;52.242;20.900;2023-04-01T19:54:01;8.55;83.99
70676;DHT22;59069;52.242;20.900;2023-04-01T19:56:39;8.52;83.95
70676;DHT22;59069;52.242;20.900;2023-04-01T20:04:41;8.55;84.04
70676;DHT22;59069;52.242;20.900;2023-04-01T20:07:27;8.53;84.05
70676;DHT22;59069;52.242;20.900;2023-04-01T20:10:30;8.56;84.07
70676;DHT22;59069;52.242;20.900;2023-04-01T20:13:11;8.52;84.11
70676;DHT22;59069;52.242;20.900;2023-04-01T20:15:47;8.49;84.10
70676;DHT22;59069;52.242;20.900;2023-04-01T20:18:31;8.49;84.12
70676;DHT22;59069;52.242;20.900;2023-04-01T20:21:03;8.46;84.25
70676;DHT22;59069;52.242;20.900;2023-04-01T20:24:07;8.48;84.30
70676;DHT22;59069;52.242;20.900;2023-04-01T20:27:14;8.42;84.29
70676;DHT22;59069;52.242;20.900;2023-04-01T20:29:39;8.41;84.47
70676;DHT22;59069;52.242;20.900;2023-04-01T20:44:04;8.28;84.86
70676;DHT22;59069;52.242;20.900;2023-04-01T20:46:59;8.22;84.89
70676;DHT22;59069;52.242;20.900;2023-04-01T21:00:15;8.08;85.27
70676;DHT22;59069;52.242;20.900;2023-04-01T21:05:39;7.98;85.04
70676;DHT22;59069;52.242;20.900;2023-04-01T21:08:32;7.94;85.04
70676;DHT22;59069;52.242;20.900;2023-04-01T21:16:56;7.91;84.92
70676;DHT22;59069;52.242;20.900;2023-04-01T21:19:49;7.87;84.77
70676;DHT22;59069;52.242;20.900;2023-04-01T21:43:01;7.97;83.89
70676;DHT22;59069;52.242;20.900;2023-04-01T21:46:07;7.93;83.72
70676;DHT22;59069;52.242;20.900;2023-04-01T22:19:30;7.80;83.94
70676;DHT22;59069;52.242;20.900;2023-04-01T22:25:00;7.81;83.66
70676;DHT22;59069;52.242;20.900;2023-04-01T22:30:27;7.74;83.41
70676;DHT22;59069;52.242;20.900;2023-04-01T22:43:54;7.57;83.10
70676;DHT22;59069;52.242;20.900;2023-04-01T22:47:08;7.53;83.02
70676;DHT22;59069;52.242;20.900;2023-04-01T22:49:39;7.52;82.91
70676;DHT22;59069;52.242;20.900;2023-04-01T22:57:44;7.53;82.62
70676;DHT22;59069;52.242;20.900;2023-04-01T23:00:16;7.52;82.54
70676;DHT22;59069;52.242;20.900;2023-04-01T23:03:19;7.54;82.46
70676;DHT22;59069;52.242;20.900;2023-04-01T23:05:55;7.53;82.29
70676;DHT22;59069;52.242;20.900;2023-04-01T23:11:23;7.47;81.93
70676;DHT22;59069;52.242;20.900;2023-04-01T23:25:36;7.43;81.65
70676;DHT22;59069;52.242;20.900;2023-04-01T23:30:47;7.40;81.41
70676;DHT22;59069;52.242;20.900;2023-04-01T23:35:54;7.42;81.24
70676;DHT22;59069;52.242;20.900;2023-04-01T23:38:25;7.39;81.10
70676;DHT22;59069;52.242;20.900;2023-04-01T23:40:53;7.42;81.15
70676;DHT22;59069;52.242;20.900;2023-04-01T23:43:25;7.42;81.19
70676;DHT22;59069;52.242;20.900;2023-04-01T23:45:53;7.44;81.12
70676;DHT22;59069;52.242;20.900;2023-04-01T23:48:19;7.43;81.05
70676;DHT22;59069;52.242;20.900;2023-04-01T23:50:46;7.46;80.90
70676;DHT22;59069;52.242;20.900;2023-04-01T23:53:24;7.44;80.85
70676;DHT22;59069;52.242;20.900;2023-04-01T23:55:51;7.43;80.85
70676;DHT22;59069;52.242;20.900;2023-04-01T23:58:26;7.43;80.80
